sensor_id;sensor_type;location;lat;lon;timestamp;P1;durP1;ratioP1;P2;durP2;ratioP2
24451;SDS011;13350;50.984;5.822;2022-08-30T00:00:52;6.18;;;2.30;;
24451;SDS011;13350;50.984;5.822;2022-08-30T00:03:28;3.47;;;1.95;;
24451;SDS011;13350;50.984;5.822;2022-08-30T00:05:56;7.82;;;2.30;;
24451;SDS011;13350;50.984;5.822;2022-08-30T00:08:25;4.47;;;2.20;;
24451;SDS011;13350;50.984;5.822;2022-08-30T00:10:54;6.10;;;2.40;;
24451;SDS011;13350;50.984;5.822;2022-08-30T00:13:21;5.75;;;2.30;;
24451;SDS011;13350;50.984;5.822;2022-08-30T00:15:49;5.82;;;2.50;;
24451;SDS011;13350;50.984;5.822;2022-08-30T00:18:17;5.60;;;2.10;;
24451;SDS011;13350;50.984;5.822;2022-08-30T00:20:45;5.68;;;1.80;;
24451;SDS011;13350;50.984;5.822;2022-08-30T00:23:15;6.03;;;2.42;;
24451;SDS011;13350;50.984;5.822;2022-08-30T00:25:42;8.02;;;2.42;;
24451;SDS011;13350;50.984;5.822;2022-08-30T00:28:11;9.77;;;2.50;;
24451;SDS011;13350;50.984;5.822;2022-08-30T00:30:39;5.28;;;2.13;;
24451;SDS011;13350;50.984;5.822;2022-08-30T00:33:08;5.30;;;2.22;;
24451;SDS011;13350;50.984;5.822;2022-08-30T00:35:35;4.60;;;2.50;;
24451;SDS011;13350;50.984;5.822;2022-08-30T00:38:04;8.45;;;2.30;;
24451;SDS011;13350;50.984;5.822;2022-08-30T00:40:31;3.63;;;2.20;;
24451;SDS011;13350;50.984;5.822;2022-08-30T00:42:59;7.10;;;2.20;;
24451;SDS011;13350;50.984;5.822;2022-08-30T00:45:31;4.90;;;2.47;;
24451;SDS011;13350;50.984;5.822;2022-08-30T00:48:00;6.32;;;2.47;;
24451;SDS011;13350;50.984;5.822;2022-08-30T00:50:30;5.90;;;2.40;;
24451;SDS011;13350;50.984;5.822;2022-08-30T00:53:01;4.15;;;2.30;;
24451;SDS011;13350;50.984;5.822;2022-08-30T00:55:31;4.22;;;2.45;;
24451;SDS011;13350;50.984;5.822;2022-08-30T00:58:00;5.57;;;2.70;;
24451;SDS011;13350;50.984;5.822;2022-08-30T01:00:32;4.28;;;2.35;;
24451;SDS011;13350;50.984;5.822;2022-08-30T01:03:00;7.13;;;2.63;;
24451;SDS011;13350;50.984;5.822;2022-08-30T01:05:27;6.65;;;2.88;;
24451;SDS011;13350;50.984;5.822;2022-08-30T01:07:55;5.53;;;2.47;;
24451;SDS011;13350;50.984;5.822;2022-08-30T01:10:22;8.45;;;3.17;;
24451;SDS011;13350;50.984;5.822;2022-08-30T01:12:50;5.80;;;2.40;;
24451;SDS011;13350;50.984;5.822;2022-08-30T01:15:17;11.98;;;3.30;;
24451;SDS011;13350;50.984;5.822;2022-08-30T01:17:46;6.35;;;3.17;;
24451;SDS011;13350;50.984;5.822;2022-08-30T01:20:14;6.28;;;2.85;;
24451;SDS011;13350;50.984;5.822;2022-08-30T01:22:57;5.75;;;2.60;;
24451;SDS011;13350;50.984;5.822;2022-08-30T01:25:28;4.85;;;2.28;;
24451;SDS011;13350;50.984;5.822;2022-08-30T01:27:58;5.72;;;2.90;;
24451;SDS011;13350;50.984;5.822;2022-08-30T01:30:29;4.88;;;2.40;;
24451;SDS011;13350;50.984;5.822;2022-08-30T01:32:57;7.35;;;2.85;;
24451;SDS011;13350;50.984;5.822;2022-08-30T01:35:28;4.68;;;2.70;;
24451;SDS011;13350;50.984;5.822;2022-08-30T01:37:59;7.72;;;2.80;;
24451;SDS011;13350;50.984;5.822;2022-08-30T01:40:27;6.53;;;2.72;;
24451;SDS011;13350;50.984;5.822;2022-08-30T01:42:54;12.05;;;3.00;;
24451;SDS011;13350;50.984;5.822;2022-08-30T01:45:21;6.05;;;3.13;;
24451;SDS011;13350;50.984;5.822;2022-08-30T01:47:48;3.88;;;2.42;;
24451;SDS011;13350;50.984;5.822;2022-08-30T01:50:16;5.32;;;2.65;;
24451;SDS011;13350;50.984;5.822;2022-08-30T01:52:43;5.35;;;3.13;;
24451;SDS011;13350;50.984;5.822;2022-08-30T01:55:11;4.60;;;2.45;;
24451;SDS011;13350;50.984;5.822;2022-08-30T01:57:39;9.18;;;3.13;;
24451;SDS011;13350;50.984;5.822;2022-08-30T02:00:07;6.80;;;2.72;;
24451;SDS011;13350;50.984;5.822;2022-08-30T02:02:35;4.20;;;2.80;;
24451;SDS011;13350;50.984;5.822;2022-08-30T02:05:03;5.57;;;2.78;;
24451;SDS011;13350;50.984;5.822;2022-08-30T02:07:31;5.28;;;2.80;;
24451;SDS011;13350;50.984;5.822;2022-08-30T02:09:58;4.90;;;2.45;;
24451;SDS011;13350;50.984;5.822;2022-08-30T02:12:27;5.35;;;2.55;;
24451;SDS011;13350;50.984;5.822;2022-08-30T02:14:54;4.65;;;2.80;;
24451;SDS011;13350;50.984;5.822;2022-08-30T02:17:22;8.52;;;3.20;;
24451;SDS011;13350;50.984;5.822;2022-08-30T02:19:50;5.43;;;3.03;;
24451;SDS011;13350;50.984;5.822;2022-08-30T02:22:17;5.65;;;3.03;;
24451;SDS011;13350;50.984;5.822;2022-08-30T02:24:45;5.78;;;3.15;;
24451;SDS011;13350;50.984;5.822;2022-08-30T02:27:12;3.60;;;2.67;;
24451;SDS011;13350;50.984;5.822;2022-08-30T02:29:41;5.55;;;2.80;;
24451;SDS011;13350;50.984;5.822;2022-08-30T02:32:08;4.25;;;2.80;;
24451;SDS011;13350;50.984;5.822;2022-08-30T02:34:35;7.10;;;2.90;;
24451;SDS011;13350;50.984;5.822;2022-08-30T02:37:02;7.88;;;3.05;;
24451;SDS011;13350;50.984;5.822;2022-08-30T02:39:30;7.78;;;2.63;;
24451;SDS011;13350;50.984;5.822;2022-08-30T02:41:57;4.80;;;2.92;;
24451;SDS011;13350;50.984;5.822;2022-08-30T02:44:25;9.18;;;3.15;;
24451;SDS011;13350;50.984;5.822;2022-08-30T02:46:53;5.65;;;2.63;;
24451;SDS011;13350;50.984;5.822;2022-08-30T02:49:20;5.28;;;3.17;;
24451;SDS011;13350;50.984;5.822;2022-08-30T02:51:48;5.25;;;2.90;;
24451;SDS011;13350;50.984;5.822;2022-08-30T02:54:15;6.43;;;2.88;;
24451;SDS011;13350;50.984;5.822;2022-08-30T02:56:44;5.40;;;2.80;;
24451;SDS011;13350;50.984;5.822;2022-08-30T02:59:12;5.97;;;2.80;;
24451;SDS011;13350;50.984;5.822;2022-08-30T03:01:40;6.50;;;2.85;;
24451;SDS011;13350;50.984;5.822;2022-08-30T03:04:09;7.03;;;2.97;;
24451;SDS011;13350;50.984;5.822;2022-08-30T03:06:36;6.82;;;3.25;;
24451;SDS011;13350;50.984;5.822;2022-08-30T03:09:03;8.85;;;3.65;;
24451;SDS011;13350;50.984;5.822;2022-08-30T03:11:31;5.88;;;2.88;;
24451;SDS011;13350;50.984;5.822;2022-08-30T03:13:58;5.60;;;3.45;;
24451;SDS011;13350;50.984;5.822;2022-08-30T03:16:26;6.68;;;2.95;;
24451;SDS011;13350;50.984;5.822;2022-08-30T03:18:53;6.95;;;3.47;;
24451;SDS011;13350;50.984;5.822;2022-08-30T03:21:24;7.75;;;3.60;;
24451;SDS011;13350;50.984;5.822;2022-08-30T03:23:52;6.80;;;3.42;;
24451;SDS011;13350;50.984;5.822;2022-08-30T03:26:19;6.18;;;3.00;;
24451;SDS011;13350;50.984;5.822;2022-08-30T03:28:46;7.60;;;2.58;;
24451;SDS011;13350;50.984;5.822;2022-08-30T03:31:13;5.95;;;3.67;;
24451;SDS011;13350;50.984;5.822;2022-08-30T03:33:40;9.93;;;3.70;;
24451;SDS011;13350;50.984;5.822;2022-08-30T03:36:07;5.70;;;2.70;;
24451;SDS011;13350;50.984;5.822;2022-08-30T03:38:38;7.45;;;3.33;;
24451;SDS011;13350;50.984;5.822;2022-08-30T03:41:06;6.60;;;3.40;;
24451;SDS011;13350;50.984;5.822;2022-08-30T03:43:33;7.20;;;3.70;;
24451;SDS011;13350;50.984;5.822;2022-08-30T03:46:00;6.88;;;3.35;;
24451;SDS011;13350;50.984;5.822;2022-08-30T03:48:28;6.35;;;3.25;;
24451;SDS011;13350;50.984;5.822;2022-08-30T03:50:55;6.30;;;3.35;;
24451;SDS011;13350;50.984;5.822;2022-08-30T03:53:22;9.95;;;3.47;;
24451;SDS011;13350;50.984;5.822;2022-08-30T03:55:51;6.00;;;3.65;;
24451;SDS011;13350;50.984;5.822;2022-08-30T03:58:18;7.22;;;3.45;;
24451;SDS011;13350;50.984;5.822;2022-08-30T04:00:45;4.80;;;3.25;;
24451;SDS011;13350;50.984;5.822;2022-08-30T04:03:12;4.97;;;3.50;;
24451;SDS011;13350;50.984;5.822;2022-08-30T04:05:40;5.70;;;3.42;;
24451;SDS011;13350;50.984;5.822;2022-08-30T04:08:07;6.85;;;3.47;;
24451;SDS011;13350;50.984;5.822;2022-08-30T04:10:34;6.53;;;3.47;;
24451;SDS011;13350;50.984;5.822;2022-08-30T04:13:03;7.85;;;3.50;;
24451;SDS011;13350;50.984;5.822;2022-08-30T04:15:30;5.65;;;3.38;;
24451;SDS011;13350;50.984;5.822;2022-08-30T04:17:57;7.72;;;4.38;;
24451;SDS011;13350;50.984;5.822;2022-08-30T04:20:24;6.75;;;3.67;;
24451;SDS011;13350;50.984;5.822;2022-08-30T04:22:51;5.25;;;3.85;;
24451;SDS011;13350;50.984;5.822;2022-08-30T04:25:18;5.38;;;3.85;;
24451;SDS011;13350;50.984;5.822;2022-08-30T04:27:45;5.40;;;3.70;;
24451;SDS011;13350;50.984;5.822;2022-08-30T04:30:15;5.60;;;3.65;;
24451;SDS011;13350;50.984;5.822;2022-08-30T04:32:43;7.15;;;4.10;;
24451;SDS011;13350;50.984;5.822;2022-08-30T04:35:11;4.60;;;3.47;;
24451;SDS011;13350;50.984;5.822;2022-08-30T04:37:39;6.93;;;3.47;;
24451;SDS011;13350;50.984;5.822;2022-08-30T04:40:07;8.68;;;4.40;;
24451;SDS011;13350;50.984;5.822;2022-08-30T04:42:35;7.07;;;4.07;;
24451;SDS011;13350;50.984;5.822;2022-08-30T04:45:04;5.88;;;4.20;;
24451;SDS011;13350;50.984;5.822;2022-08-30T04:47:34;7.15;;;4.40;;
24451;SDS011;13350;50.984;5.822;2022-08-30T04:50:03;7.28;;;4.15;;
24451;SDS011;13350;50.984;5.822;2022-08-30T04:52:31;6.78;;;4.20;;
24451;SDS011;13350;50.984;5.822;2022-08-30T04:54:58;7.07;;;4.28;;
24451;SDS011;13350;50.984;5.822;2022-08-30T04:57:26;5.57;;;3.72;;
24451;SDS011;13350;50.984;5.822;2022-08-30T04:59:53;8.60;;;4.30;;
24451;SDS011;13350;50.984;5.822;2022-08-30T05:02:21;8.43;;;4.45;;
24451;SDS011;13350;50.984;5.822;2022-08-30T05:04:50;8.65;;;4.18;;
24451;SDS011;13350;50.984;5.822;2022-08-30T05:07:37;7.20;;;4.38;;
24451;SDS011;13350;50.984;5.822;2022-08-30T05:10:04;6.43;;;4.10;;
24451;SDS011;13350;50.984;5.822;2022-08-30T05:12:32;6.07;;;4.28;;
24451;SDS011;13350;50.984;5.822;2022-08-30T05:14:59;8.07;;;4.07;;
24451;SDS011;13350;50.984;5.822;2022-08-30T05:17:27;10.20;;;4.28;;
24451;SDS011;13350;50.984;5.822;2022-08-30T05:19:55;6.95;;;4.72;;
24451;SDS011;13350;50.984;5.822;2022-08-30T05:22:22;8.02;;;4.40;;
24451;SDS011;13350;50.984;5.822;2022-08-30T05:24:49;10.55;;;4.70;;
24451;SDS011;13350;50.984;5.822;2022-08-30T05:27:16;8.85;;;3.97;;
24451;SDS011;13350;50.984;5.822;2022-08-30T05:29:43;9.20;;;4.00;;
24451;SDS011;13350;50.984;5.822;2022-08-30T05:32:11;7.60;;;4.28;;
24451;SDS011;13350;50.984;5.822;2022-08-30T05:34:38;6.03;;;4.20;;
24451;SDS011;13350;50.984;5.822;2022-08-30T05:37:06;6.22;;;4.25;;
24451;SDS011;13350;50.984;5.822;2022-08-30T05:39:33;5.85;;;3.65;;
24451;SDS011;13350;50.984;5.822;2022-08-30T05:42:01;5.47;;;3.60;;
24451;SDS011;13350;50.984;5.822;2022-08-30T05:44:28;7.15;;;4.13;;
24451;SDS011;13350;50.984;5.822;2022-08-30T05:46:55;6.15;;;4.10;;
24451;SDS011;13350;50.984;5.822;2022-08-30T05:49:22;9.23;;;4.07;;
24451;SDS011;13350;50.984;5.822;2022-08-30T05:51:49;6.93;;;4.07;;
24451;SDS011;13350;50.984;5.822;2022-08-30T05:54:18;7.05;;;3.28;;
24451;SDS011;13350;50.984;5.822;2022-08-30T05:56:45;5.80;;;3.50;;
24451;SDS011;13350;50.984;5.822;2022-08-30T05:59:12;5.88;;;3.50;;
24451;SDS011;13350;50.984;5.822;2022-08-30T06:01:41;5.10;;;3.70;;
24451;SDS011;13350;50.984;5.822;2022-08-30T06:04:09;5.38;;;3.47;;
24451;SDS011;13350;50.984;5.822;2022-08-30T06:06:38;6.15;;;3.88;;
24451;SDS011;13350;50.984;5.822;2022-08-30T06:09:07;6.20;;;3.78;;
24451;SDS011;13350;50.984;5.822;2022-08-30T06:11:37;4.45;;;3.72;;
24451;SDS011;13350;50.984;5.822;2022-08-30T06:14:05;5.32;;;3.50;;
24451;SDS011;13350;50.984;5.822;2022-08-30T06:16:32;5.75;;;3.83;;
24451;SDS011;13350;50.984;5.822;2022-08-30T06:19:03;6.65;;;3.75;;
24451;SDS011;13350;50.984;5.822;2022-08-30T06:21:33;7.32;;;3.33;;
24451;SDS011;13350;50.984;5.822;2022-08-30T06:24:02;4.53;;;3.22;;
24451;SDS011;13350;50.984;5.822;2022-08-30T06:26:35;6.45;;;2.97;;
24451;SDS011;13350;50.984;5.822;2022-08-30T06:29:06;4.93;;;2.60;;
24451;SDS011;13350;50.984;5.822;2022-08-30T06:31:34;4.38;;;2.78;;
24451;SDS011;13350;50.984;5.822;2022-08-30T06:34:01;4.15;;;2.92;;
24451;SDS011;13350;50.984;5.822;2022-08-30T06:36:29;7.45;;;3.47;;
24451;SDS011;13350;50.984;5.822;2022-08-30T06:38:56;4.10;;;2.80;;
24451;SDS011;13350;50.984;5.822;2022-08-30T06:41:25;5.10;;;3.03;;
24451;SDS011;13350;50.984;5.822;2022-08-30T06:44:01;4.28;;;2.97;;
24451;SDS011;13350;50.984;5.822;2022-08-30T06:46:30;5.22;;;2.75;;
24451;SDS011;13350;50.984;5.822;2022-08-30T06:48:58;5.35;;;3.17;;
24451;SDS011;13350;50.984;5.822;2022-08-30T06:51:27;5.20;;;3.58;;
24451;SDS011;13350;50.984;5.822;2022-08-30T06:53:56;6.70;;;3.85;;
24451;SDS011;13350;50.984;5.822;2022-08-30T06:56:24;4.05;;;2.72;;
24451;SDS011;13350;50.984;5.822;2022-08-30T06:58:52;3.83;;;3.00;;
24451;SDS011;13350;50.984;5.822;2022-08-30T07:01:22;4.40;;;3.15;;
24451;SDS011;13350;50.984;5.822;2022-08-30T07:03:50;4.10;;;2.90;;
24451;SDS011;13350;50.984;5.822;2022-08-30T07:06:18;6.95;;;2.95;;
24451;SDS011;13350;50.984;5.822;2022-08-30T07:08:45;6.28;;;3.38;;
24451;SDS011;13350;50.984;5.822;2022-08-30T07:11:14;3.42;;;2.65;;
24451;SDS011;13350;50.984;5.822;2022-08-30T07:13:41;3.92;;;2.72;;
24451;SDS011;13350;50.984;5.822;2022-08-30T07:16:09;5.50;;;3.28;;
24451;SDS011;13350;50.984;5.822;2022-08-30T07:18:38;6.18;;;3.17;;
24451;SDS011;13350;50.984;5.822;2022-08-30T07:21:21;4.97;;;3.22;;
24451;SDS011;13350;50.984;5.822;2022-08-30T07:23:50;6.50;;;3.10;;
24451;SDS011;13350;50.984;5.822;2022-08-30T07:26:19;4.80;;;2.58;;
24451;SDS011;13350;50.984;5.822;2022-08-30T07:28:48;4.55;;;2.92;;
24451;SDS011;13350;50.984;5.822;2022-08-30T07:31:16;5.78;;;3.20;;
24451;SDS011;13350;50.984;5.822;2022-08-30T07:33:45;7.60;;;2.70;;
24451;SDS011;13350;50.984;5.822;2022-08-30T07:36:13;5.78;;;3.05;;
24451;SDS011;13350;50.984;5.822;2022-08-30T07:38:41;4.18;;;2.90;;
24451;SDS011;13350;50.984;5.822;2022-08-30T07:41:14;5.05;;;2.60;;
24451;SDS011;13350;50.984;5.822;2022-08-30T07:43:43;6.15;;;3.15;;
24451;SDS011;13350;50.984;5.822;2022-08-30T07:46:11;8.60;;;2.63;;
24451;SDS011;13350;50.984;5.822;2022-08-30T07:48:38;7.75;;;2.90;;
24451;SDS011;13350;50.984;5.822;2022-08-30T07:51:09;3.30;;;2.20;;
24451;SDS011;13350;50.984;5.822;2022-08-30T07:53:37;3.78;;;2.70;;
24451;SDS011;13350;50.984;5.822;2022-08-30T07:56:05;4.38;;;2.20;;
24451;SDS011;13350;50.984;5.822;2022-08-30T07:58:32;8.43;;;2.40;;
